Time;durP1;ratioP1;P1;durP2;ratioP2;P2;SDS_P1;SDS_P2;PMS_P1;PMS_P2;Temp;Humidity;BMP_temperature;BMP_pressure;BME280_temperature;BME280_humidity;BME280_pressure;Samples;Min_cycle;Max_cycle;Signal;HPM_P1;HPM_P2
2022/07/02 00:01:10;;;;;;;19.30;11.10;;;;;;;12.55;93.74;101527.03;5989250;28;20027;-66
2022/07/02 00:04:05;;;;;;;13.53;9.37;;;;;;;12.41;93.52;101516.81;5999482;28;20082;-66
2022/07/02 00:07:01;;;;;;;13.53;8.83;;;;;;;12.19;94.06;101513.56;6016100;28;20278;-66
2022/07/02 00:09:57;;;;;;;17.27;10.27;;;;;;;12.17;94.40;101523.50;6001848;28;20107;-66
2022/07/02 00:12:52;;;;;;;14.75;9.27;;;;;;;12.46;94.59;101529.69;6002213;28;20047;-66
2022/07/02 00:15:48;;;;;;;14.77;10.20;;;;;;;12.84;95.41;101524.41;6003635;28;20546;-66
2022/07/02 00:18:43;;;;;;;19.77;10.95;;;;;;;12.93;94.63;101530.72;6001562;28;20037;-66
2022/07/02 00:21:39;;;;;;;16.13;9.73;;;;;;;12.83;93.44;101528.03;6000972;28;20042;-66
2022/07/02 00:24:39;;;;;;;14.75;9.73;;;;;;;12.85;93.31;101534.09;6000859;28;20763;-66
2022/07/02 00:27:36;;;;;;;18.23;9.85;;;;;;;12.98;92.72;101539.09;5995135;28;20038;-66
2022/07/02 00:30:33;;;;;;;12.43;8.40;;;;;;;12.37;92.17;101528.69;6001947;28;20030;-66
2022/07/02 00:33:29;;;;;;;15.20;8.30;;;;;;;12.42;92.30;101522.97;6001806;28;20030;-66
2022/07/02 00:36:25;;;;;;;12.13;7.72;;;;;;;12.38;92.12;101534.88;6002441;28;20479;-66
2022/07/02 00:39:20;;;;;;;10.25;7.53;;;;;;;12.32;92.03;101525.63;6001524;28;20030;-66
2022/07/02 00:42:16;;;;;;;10.70;6.83;;;;;;;12.23;91.90;101520.28;6001136;28;20046;-66
2022/07/02 00:45:11;;;;;;;9.63;6.75;;;;;;;12.23;91.05;101530.94;6001341;28;20039;-66
2022/07/02 00:48:06;;;;;;;11.00;6.73;;;;;;;12.32;90.67;101546.06;6003287;28;20066;-66
2022/07/02 00:51:02;;;;;;;9.73;6.43;;;;;;;12.43;91.24;101551.25;5988874;28;20446;-66
2022/07/02 00:53:57;;;;;;;10.57;6.43;;;;;;;12.48;90.88;101531.25;5994942;28;20341;-66
2022/07/02 00:56:52;;;;;;;8.47;5.73;;;;;;;12.31;90.72;101528.44;6002671;28;20305;-66
2022/07/02 00:59:48;;;;;;;11.02;6.80;;;;;;;12.47;90.29;101536.72;5995243;28;20070;-66
2022/07/02 01:02:44;;;;;;;11.63;6.15;;;;;;;12.32;89.13;101530.94;6012945;28;20069;-66
2022/07/02 01:05:40;;;;;;;11.63;7.70;;;;;;;12.36;90.41;101531.50;6000834;28;20045;-66
2022/07/02 01:11:50;;;;;;;10.20;6.68;;;;;;;12.22;89.79;101539.88;6000536;28;20042;-66
2022/07/02 01:14:46;;;;;;;10.10;6.57;;;;;;;12.27;90.74;101534.97;5995790;28;20067;-66
2022/07/02 01:17:42;;;;;;;12.75;6.10;;;;;;;12.14;89.46;101534.41;5995489;28;20443;-66
2022/07/02 01:20:37;;;;;;;9.18;5.72;;;;;;;12.20;89.13;101541.84;6001173;28;20039;-66
2022/07/02 01:23:32;;;;;;;8.27;6.13;;;;;;;12.24;89.02;101548.56;5991507;28;20039;-66
2022/07/02 01:26:28;;;;;;;10.17;6.03;;;;;;;12.22;88.61;101550.50;5991143;28;20125;-66
2022/07/02 01:29:23;;;;;;;9.30;5.73;;;;;;;12.23;88.37;101557.53;5995481;28;20398;-66
2022/07/02 01:32:18;;;;;;;9.43;6.07;;;;;;;12.13;88.22;101552.16;5996780;28;20039;-66
2022/07/02 01:35:14;;;;;;;7.72;5.55;;;;;;;12.19;88.00;101562.25;5992018;28;20047;-66
2022/07/02 01:38:09;;;;;;;8.83;5.37;;;;;;;12.05;87.85;101559.13;5991780;28;20442;-66
2022/07/02 01:44:18;;;;;;;7.15;5.63;;;;;;;11.95;88.06;101559.09;5997925;28;20031;-66
2022/07/02 01:47:14;;;;;;;10.27;5.57;;;;;;;11.97;88.07;101558.97;6000588;28;20479;-66
2022/07/02 01:50:09;;;;;;;9.13;5.03;;;;;;;12.04;88.50;101566.25;6001381;28;20077;-66
2022/07/02 01:53:05;;;;;;;8.03;5.57;;;;;;;12.01;88.22;101563.91;6001506;28;20078;-66
2022/07/02 01:56:00;;;;;;;8.00;5.47;;;;;;;12.04;88.16;101560.13;6002048;28;20278;-66
2022/07/02 01:58:55;;;;;;;9.43;5.43;;;;;;;12.08;87.64;101569.50;6000466;28;20031;-66
2022/07/02 02:01:51;;;;;;;8.47;5.50;;;;;;;12.01;87.22;101557.72;5994934;28;20046;-66
2022/07/02 02:04:46;;;;;;;8.47;5.27;;;;;;;12.09;87.29;101555.25;5996233;28;20454;-66
2022/07/02 02:07:41;;;;;;;11.33;5.70;;;;;;;12.04;86.97;101562.78;6002273;28;20698;-66
2022/07/02 02:10:36;;;;;;;9.17;5.13;;;;;;;12.21;87.88;101570.94;5996916;28;20051;-66
2022/07/02 02:13:32;;;;;;;9.10;5.07;;;;;;;12.07;87.20;101567.81;6000601;28;20039;-66
2022/07/02 02:16:29;;;;;;;7.87;5.37;;;;;;;12.19;87.19;101572.06;6002061;28;20035;-66
2022/07/02 02:19:24;;;;;;;10.68;5.55;;;;;;;12.09;86.85;101563.22;6000099;28;20055;-66
2022/07/02 02:22:19;;;;;;;9.80;5.60;;;;;;;11.97;87.28;101561.63;6000617;28;20495;-66
2022/07/02 02:25:15;;;;;;;12.93;5.37;;;;;;;12.08;88.12;101570.34;5992426;28;20038;-66
2022/07/02 02:28:11;;;;;;;8.07;5.60;;;;;;;11.93;88.40;101582.28;6001623;28;20289;-66
2022/07/02 02:31:07;;;;;;;8.75;5.22;;;;;;;11.90;88.06;101588.72;6005556;28;20054;-66
2022/07/02 02:34:02;;;;;;;9.27;5.15;;;;;;;12.05;88.76;101580.41;5996732;28;20057;-66
2022/07/02 02:36:57;;;;;;;7.83;5.23;;;;;;;12.07;89.16;101583.75;6006030;28;20107;-66
2022/07/02 02:39:53;;;;;;;7.33;4.93;;;;;;;12.20;89.92;101589.69;5996636;28;20035;-66
2022/07/02 02:42:48;;;;;;;8.03;5.77;;;;;;;12.54;90.96;101583.06;6001367;28;20043;-66
2022/07/02 02:45:44;;;;;;;10.25;5.57;;;;;;;12.44;90.32;101582.22;6002920;28;20037;-66
2022/07/02 02:48:39;;;;;;;21.30;6.07;;;;;;;12.12;89.51;101595.66;6003630;28;20039;-66
2022/07/02 02:51:34;;;;;;;8.73;5.00;;;;;;;12.14;90.09;101588.41;6004836;28;20371;-66
2022/07/02 02:54:30;;;;;;;9.40;5.37;;;;;;;12.36;90.79;101598.00;5995412;28;20274;-66
2022/07/02 02:57:25;;;;;;;10.10;5.38;;;;;;;12.14;90.77;101598.22;5992300;28;20445;-66
2022/07/02 03:00:20;;;;;;;9.10;5.87;;;;;;;12.29;91.61;101594.19;6004532;28;20045;-66
2022/07/02 03:03:16;;;;;;;10.40;5.60;;;;;;;12.29;91.16;101599.50;6005104;28;20034;-66
2022/07/02 03:06:11;;;;;;;9.07;5.40;;;;;;;12.37;91.40;101611.16;6005439;28;20042;-66
2022/07/02 03:09:06;;;;;;;9.80;6.57;;;;;;;12.34;90.74;101595.47;5998332;28;20032;-66
2022/07/02 03:12:02;;;;;;;7.60;5.67;;;;;;;12.25;90.71;101614.91;5999598;28;20054;-66
2022/07/02 03:14:57;;;;;;;10.85;5.47;;;;;;;12.54;91.21;101617.66;5997340;28;20046;-66
2022/07/02 03:17:53;;;;;;;8.23;5.28;;;;;;;12.35;90.78;101618.44;5998532;28;20103;-66
2022/07/02 03:20:48;;;;;;;7.83;4.67;;;;;;;12.43;90.82;101617.75;5997260;28;20065;-66
2022/07/02 03:23:43;;;;;;;7.63;4.97;;;;;;;12.18;89.88;101615.56;6002265;28;20039;-66
2022/07/02 03:26:38;;;;;;;10.03;5.33;;;;;;;12.33;89.60;101623.06;6005027;28;20309;-66
2022/07/02 03:29:34;;;;;;;8.83;5.60;;;;;;;12.52;90.64;101624.94;5999104;28;20043;-66
2022/07/02 03:32:29;;;;;;;9.80;5.40;;;;;;;12.22;89.12;101623.16;5999720;28;20031;-66
2022/07/02 03:35:24;;;;;;;8.83;5.80;;;;;;;12.34;89.85;101629.19;6003859;28;20110;-66
2022/07/02 03:38:20;;;;;;;8.07;5.38;;;;;;;12.41;89.62;101628.53;6002936;28;20777;-66
2022/07/02 03:41:15;;;;;;;8.90;4.80;;;;;;;12.20;89.72;101637.56;6001579;28;20043;-66
2022/07/02 03:44:10;;;;;;;11.40;4.80;;;;;;;12.15;90.02;101653.91;6004415;28;20035;-66
2022/07/02 03:47:06;;;;;;;6.72;4.45;;;;;;;12.12;88.47;101648.03;6003675;28;20027;-66
2022/07/02 03:50:01;;;;;;;8.20;4.50;;;;;;;11.79;88.56;101655.28;6003338;28;20061;-66
2022/07/02 03:52:56;;;;;;;6.57;3.97;;;;;;;11.69;88.95;101641.06;6001970;28;20031;-66
2022/07/02 03:55:52;;;;;;;8.40;4.47;;;;;;;12.01;89.47;101654.28;6003583;28;20030;-66
2022/07/02 03:58:47;;;;;;;5.80;3.80;;;;;;;12.34;89.31;101645.16;6004080;28;20386;-66
2022/07/02 04:01:42;;;;;;;7.67;4.43;;;;;;;12.44;88.78;101656.69;5997870;28;20050;-66
2022/07/02 04:04:38;;;;;;;6.53;3.87;;;;;;;12.58;87.96;101661.66;5998733;28;20030;-66
2022/07/02 04:07:35;;;;;;;8.35;3.75;;;;;;;12.74;87.14;101664.63;6002312;28;20043;-66
2022/07/02 04:10:30;;;;;;;5.70;3.80;;;;;;;12.65;86.42;101654.78;6001474;28;20043;-66
2022/07/02 04:13:25;;;;;;;7.38;3.78;;;;;;;12.51;86.44;101657.81;6001911;28;20038;-66
2022/07/02 04:16:21;;;;;;;11.70;3.67;;;;;;;12.65;86.32;101670.75;6003854;28;20030;-66
2022/07/02 04:19:16;;;;;;;6.00;3.63;;;;;;;12.73;86.11;101656.75;6002560;28;20118;-66
2022/07/02 04:22:12;;;;;;;5.63;3.63;;;;;;;12.73;86.52;101665.59;6014723;28;20705;-66
2022/07/02 04:25:07;;;;;;;8.07;3.95;;;;;;;12.89;85.74;101668.56;6002676;28;20035;-66
2022/07/02 04:28:03;;;;;;;8.63;3.63;;;;;;;13.11;85.26;101665.69;6002565;28;20026;-66
2022/07/02 04:30:58;;;;;;;7.63;3.80;;;;;;;13.68;82.57;101664.00;6003025;28;20039;-65
2022/07/02 04:33:54;;;;;;;7.67;3.70;;;;;;;13.97;80.73;101662.09;5999285;28;20045;-66
2022/07/02 04:36:49;;;;;;;7.53;3.17;;;;;;;14.17;79.61;101653.06;6002407;28;20042;-65
2022/07/02 04:39:44;;;;;;;6.20;3.50;;;;;;;14.72;77.92;101663.78;6001372;28;20394;-65
2022/07/02 04:42:40;;;;;;;6.87;3.27;;;;;;;15.15;76.58;101666.59;5995387;28;20050;-66
2022/07/02 04:45:35;;;;;;;7.47;3.60;;;;;;;15.38;74.12;101670.47;5996720;28;20049;-65
2022/07/02 04:48:31;;;;;;;5.43;3.43;;;;;;;15.46;75.40;101659.88;5991649;28;20671;-66
2022/07/02 04:51:26;;;;;;;4.50;3.10;;;;;;;15.94;74.14;101662.09;6002031;28;20526;-66
2022/07/02 04:54:22;;;;;;;5.10;2.70;;;;;;;16.50;70.94;101661.53;5993699;28;20045;-66
2022/07/02 04:57:17;;;;;;;4.50;2.70;;;;;;;16.69;71.98;101673.03;6001630;28;20042;-66
2022/07/02 05:00:13;;;;;;;6.00;2.77;;;;;;;16.85;69.33;101673.09;5995857;28;20397;-67
2022/07/02 05:03:08;;;;;;;7.60;2.67;;;;;;;17.91;65.99;101670.31;5992518;28;20279;-66
2022/07/02 05:06:03;;;;;;;7.53;2.97;;;;;;;17.82;67.19;101666.84;6002792;28;20043;-66
2022/07/02 05:08:59;;;;;;;3.10;2.60;;;;;;;17.87;64.93;101663.63;5998371;28;20070;-66
2022/07/02 05:11:54;;;;;;;5.27;3.07;;;;;;;17.63;65.87;101677.91;6000528;28;20266;-66
2022/07/02 05:14:50;;;;;;;4.70;2.72;;;;;;;17.43;67.43;101671.16;5994930;28;20053;-66
2022/07/02 05:17:45;;;;;;;5.57;3.00;;;;;;;17.39;67.56;101672.53;5996402;28;20039;-66
2022/07/02 05:20:40;;;;;;;4.77;2.60;;;;;;;18.39;63.88;101678.28;6001826;28;20034;-66
2022/07/02 05:23:36;;;;;;;6.72;2.70;;;;;;;18.02;64.56;101679.91;6000106;28;20379;-66
2022/07/02 05:26:31;;;;;;;7.80;2.80;;;;;;;17.70;66.86;101673.53;6002502;28;20394;-66
2022/07/02 05:29:26;;;;;;;5.67;2.73;;;;;;;17.47;66.16;101677.03;6001158;28;20475;-66
2022/07/02 05:32:21;;;;;;;4.50;2.43;;;;;;;17.74;65.41;101677.59;6001101;28;20041;-66
2022/07/02 05:35:17;;;;;;;5.90;2.53;;;;;;;18.08;64.87;101679.19;5991824;28;20962;-66
2022/07/02 05:38:12;;;;;;;5.18;2.60;;;;;;;17.80;64.52;101684.13;5998960;28;20039;-66
2022/07/02 05:41:08;;;;;;;4.72;2.70;;;;;;;18.09;64.19;101680.88;5992492;28;20471;-66
2022/07/02 05:44:03;;;;;;;5.60;2.17;;;;;;;18.28;62.64;101684.03;5989396;28;20038;-66
2022/07/02 05:46:59;;;;;;;4.40;2.42;;;;;;;18.83;61.79;101694.72;5996235;28;20309;-66
2022/07/02 05:49:55;;;;;;;6.03;2.70;;;;;;;18.39;62.96;101697.09;5999256;28;20041;-66
2022/07/02 05:52:50;;;;;;;5.55;2.45;;;;;;;19.73;59.62;101698.53;5999166;28;20127;-66
2022/07/02 05:55:45;;;;;;;5.07;2.10;;;;;;;19.31;61.16;101703.53;6002122;28;20617;-66
2022/07/02 05:58:41;;;;;;;3.43;2.27;;;;;;;19.92;59.04;101692.63;6002353;28;20387;-66
2022/07/02 06:01:36;;;;;;;5.20;2.40;;;;;;;20.15;57.64;101693.41;6001475;28;20038;-66
2022/07/02 06:04:32;;;;;;;4.43;2.50;;;;;;;20.10;57.90;101701.22;6004503;28;20038;-66
2022/07/02 06:07:39;;;;;;;6.53;2.30;;;;;;;20.61;55.81;101702.19;6006539;28;20258;-66
2022/07/02 06:10:34;;;;;;;4.65;1.80;;;;;;;20.86;54.90;101704.56;6005783;28;20034;-66
2022/07/02 06:13:30;;;;;;;5.07;2.00;;;;;;;21.52;53.76;101703.47;6006515;28;20149;-67
2022/07/02 06:16:27;;;;;;;2.37;1.60;;;;;;;21.45;53.08;101718.75;6006240;28;20270;-66
2022/07/02 06:19:22;;;;;;;3.47;1.60;;;;;;;21.18;53.73;101718.47;6003254;28;20052;-66
2022/07/02 06:22:18;;;;;;;3.57;1.90;;;;;;;21.71;51.67;101710.91;6002895;28;20026;-66
2022/07/02 06:25:13;;;;;;;4.07;1.87;;;;;;;22.28;49.82;101711.59;6002155;28;20037;-66
2022/07/02 06:28:08;;;;;;;3.53;1.97;;;;;;;21.83;49.15;101720.97;6004845;28;20038;-66
2022/07/02 06:31:04;;;;;;;3.87;1.40;;;;;;;21.40;51.97;101716.63;5999736;28;20042;-66
2022/07/02 06:33:59;;;;;;;2.33;1.40;;;;;;;21.66;52.33;101713.38;5999866;28;20090;-66
2022/07/02 06:36:54;;;;;;;3.90;1.43;;;;;;;22.53;49.88;101715.47;6009477;28;20066;-66
2022/07/02 06:39:50;;;;;;;2.88;1.58;;;;;;;21.46;50.65;101725.81;6006611;28;20270;-66
2022/07/02 06:42:46;;;;;;;5.35;1.50;;;;;;;22.11;50.73;101714.78;6005014;28;20042;-66
2022/07/02 06:45:41;;;;;;;3.87;1.70;;;;;;;20.83;52.79;101731.91;6005162;28;20046;-66
2022/07/02 06:48:36;;;;;;;3.43;1.50;;;;;;;21.49;51.31;101715.47;5998514;28;20925;-66
2022/07/02 06:51:37;;;;;;;8.03;1.57;;;;;;;21.12;52.88;101719.22;6001077;28;20329;-66
2022/07/02 06:54:33;;;;;;;3.85;1.48;;;;;;;21.34;51.28;101722.78;6002151;28;20049;-66
2022/07/02 06:57:28;;;;;;;2.43;1.40;;;;;;;21.12;51.23;101704.91;6005422;28;20031;-66
2022/07/02 07:00:23;;;;;;;5.63;1.80;;;;;;;21.25;51.77;101730.16;6005329;28;20389;-66
2022/07/02 07:03:19;;;;;;;2.65;1.40;;;;;;;21.74;51.67;101724.03;6003808;28;20058;-66
2022/07/02 07:06:14;;;;;;;4.97;1.67;;;;;;;21.84;48.66;101724.53;6003792;28;20546;-66
2022/07/02 07:09:09;;;;;;;5.73;1.50;;;;;;;22.41;48.80;101725.19;5995072;28;20042;-67
2022/07/02 07:12:05;;;;;;;4.07;1.00;;;;;;;23.84;44.53;101719.66;6001267;28;20031;-67
2022/07/02 07:15:04;;;;;;;3.17;1.10;;;;;;;23.82;44.51;101722.59;5991658;28;20566;-67
2022/07/02 07:18:00;;;;;;;2.92;1.20;;;;;;;22.96;46.77;101731.53;6003537;28;20034;-66
2022/07/02 07:20:55;;;;;;;4.73;1.50;;;;;;;23.27;46.24;101734.53;5997624;28;20039;-67
2022/07/02 07:23:50;;;;;;;3.37;1.20;;;;;;;22.53;48.78;101737.09;6004169;28;20027;-66
2022/07/02 07:26:46;;;;;;;3.40;1.27;;;;;;;22.73;45.90;101731.00;6003958;28;20041;-67
2022/07/02 07:29:41;;;;;;;1.92;1.10;;;;;;;23.18;43.72;101727.66;5998664;28;20490;-67
2022/07/02 07:32:36;;;;;;;4.70;1.50;;;;;;;23.12;43.65;101733.88;6003720;28;20124;-66
2022/07/02 07:35:32;;;;;;;5.33;1.47;;;;;;;23.18;45.80;101734.94;5993587;28;20085;-67
2022/07/02 07:38:28;;;;;;;4.77;1.33;;;;;;;23.13;43.29;101741.78;5998534;28;20043;-67
2022/07/02 07:41:23;;;;;;;3.30;1.27;;;;;;;23.24;44.60;101740.38;6002344;28;20313;-66
2022/07/02 07:44:18;;;;;;;3.15;1.20;;;;;;;22.04;46.23;101736.34;5996368;28;20039;-66
2022/07/02 07:47:14;;;;;;;3.53;1.40;;;;;;;22.86;46.18;101741.88;5997225;28;20034;-67
2022/07/02 07:50:09;;;;;;;1.97;1.37;;;;;;;23.99;43.39;101739.25;6001482;28;20043;-67
2022/07/02 07:53:04;;;;;;;4.68;1.30;;;;;;;22.67;44.29;101732.63;6004191;28;20071;-67
2022/07/02 07:56:00;;;;;;;2.73;1.03;;;;;;;22.90;42.48;101740.47;6001030;28;20038;-66
2022/07/02 07:58:55;;;;;;;3.83;1.30;;;;;;;22.58;42.85;101733.81;6003671;28;20038;-67
2022/07/02 08:01:50;;;;;;;4.03;1.10;;;;;;;22.66;44.46;101735.56;6003327;28;20687;-67
2022/07/02 08:04:46;;;;;;;4.95;1.27;;;;;;;23.04;44.12;101734.06;6003044;28;20089;-67
2022/07/02 08:07:41;;;;;;;5.68;1.88;;;;;;;23.36;44.88;101735.19;6004242;28;20058;-67
2022/07/02 08:10:37;;;;;;;4.27;1.00;;;;;;;23.02;44.19;101746.94;6003148;28;20034;-67
2022/07/02 08:13:32;;;;;;;4.60;1.40;;;;;;;23.26;45.51;101749.13;5995422;28;20279;-67
2022/07/02 08:16:27;;;;;;;5.10;1.37;;;;;;;23.26;43.53;101749.13;6003590;28;20082;-67
2022/07/02 08:19:23;;;;;;;2.90;1.15;;;;;;;23.50;43.00;101748.59;5996865;28;20019;-66
2022/07/02 08:22:19;;;;;;;4.23;1.43;;;;;;;22.39;45.30;101738.06;5999616;28;20101;-66
2022/07/02 08:25:15;;;;;;;3.40;1.15;;;;;;;22.47;45.31;101740.63;6003251;28;20035;-65
2022/07/02 08:28:10;;;;;;;3.28;1.20;;;;;;;23.07;41.72;101739.06;6000034;28;20029;-67
2022/07/02 08:31:05;;;;;;;4.85;1.40;;;;;;;23.65;42.44;101732.16;5988998;28;20046;-67
2022/07/02 08:34:01;;;;;;;3.45;1.00;;;;;;;23.82;42.40;101732.59;6002512;28;20042;-67
2022/07/02 08:36:56;;;;;;;8.63;1.40;;;;;;;23.49;41.42;101746.94;6002019;28;20050;-66
2022/07/02 08:39:53;;;;;;;2.55;1.30;;;;;;;23.01;41.84;101743.44;6003182;28;20541;-66
2022/07/02 08:42:49;;;;;;;4.55;1.48;;;;;;;22.79;44.22;101739.16;5998007;28;20034;-66
2022/07/02 08:45:45;;;;;;;4.25;1.33;;;;;;;23.26;42.89;101742.88;6002123;28;20094;-67
2022/07/02 08:48:41;;;;;;;3.10;1.20;;;;;;;22.84;42.42;101738.56;6001360;28;20041;-67
2022/07/02 08:51:36;;;;;;;4.53;1.23;;;;;;;23.28;42.29;101740.81;5993765;28;20438;-66
2022/07/02 08:54:31;;;;;;;2.95;1.13;;;;;;;23.53;40.92;101739.22;6001724;28;20526;-67
2022/07/02 08:57:27;;;;;;;3.45;1.40;;;;;;;23.41;41.14;101739.00;6001636;28;20050;-67
2022/07/02 09:00:22;;;;;;;2.25;0.98;;;;;;;23.28;41.86;101730.81;5992181;28;20395;-67
2022/07/02 09:03:19;;;;;;;3.17;1.30;;;;;;;23.19;43.20;101732.03;5990208;28;20039;-67
2022/07/02 09:06:16;;;;;;;2.42;1.02;;;;;;;22.86;42.97;101721.06;6000929;28;20344;-67
2022/07/02 09:09:12;;;;;;;7.13;1.10;;;;;;;23.47;41.29;101719.22;5998924;28;20538;-67
2022/07/02 09:12:14;;;;;;;4.00;1.77;;;;;;;23.63;41.19;101708.00;6002255;28;20022;-67
2022/07/02 09:15:10;;;;;;;1.95;1.17;;;;;;;24.04;40.63;101709.66;6002165;28;20031;-67
2022/07/02 09:18:05;;;;;;;4.28;1.30;;;;;;;24.40;39.42;101707.34;5995051;28;20043;-67
2022/07/02 09:21:00;;;;;;;4.90;1.30;;;;;;;24.50;37.66;101702.28;6002125;28;20063;-66
2022/07/02 09:23:56;;;;;;;4.33;1.30;;;;;;;24.06;38.45;101713.81;5991497;28;20039;-67
2022/07/02 09:27:08;;;;;;;2.77;0.90;;;;;;;23.48;38.61;101698.41;6001385;28;20042;-67
2022/07/02 09:30:04;;;;;;;2.45;1.17;;;;;;;23.38;40.57;101682.53;6000183;28;20038;-66
2022/07/02 09:36:13;;;;;;;2.45;1.17;;;;;;;23.75;40.81;101683.00;5996227;28;20035;-67
2022/07/02 09:39:09;;;;;;;4.00;1.30;;;;;;;24.27;38.39;101694.63;5994448;28;20038;-67
2022/07/02 09:42:04;;;;;;;1.67;1.15;;;;;;;24.14;37.50;101675.69;6001723;28;20642;-67
2022/07/02 09:45:05;;;;;;;4.18;1.05;;;;;;;23.32;39.38;101698.75;6007030;28;20030;-67
2022/07/02 09:48:02;;;;;;;2.45;1.02;;;;;;;23.25;40.19;101687.91;6007251;28;20494;-67
2022/07/02 09:51:02;;;;;;;4.15;1.05;;;;;;;22.94;41.65;101695.72;5995677;28;20042;-66
2022/07/02 09:53:58;;;;;;;3.78;1.10;;;;;;;23.61;39.17;101688.41;6003740;28;20045;-66
2022/07/02 09:56:54;;;;;;;3.13;1.00;;;;;;;23.65;39.25;101673.41;6005720;28;20039;-66
2022/07/02 09:59:50;;;;;;;5.03;1.17;;;;;;;23.67;39.76;101671.31;6005952;28;20483;-67
2022/07/02 10:02:50;;;;;;;2.47;0.93;;;;;;;24.00;38.08;101667.72;6005322;28;20038;-66
2022/07/02 10:05:49;;;;;;;1.88;0.82;;;;;;;23.99;39.71;101685.06;6001814;28;20045;-67
2022/07/02 10:08:44;;;;;;;5.57;1.40;;;;;;;24.54;38.46;101679.09;5996826;28;20046;-67
2022/07/02 10:11:40;;;;;;;2.22;1.05;;;;;;;23.52;38.91;101681.50;6005796;28;20027;-67
2022/07/02 10:14:36;;;;;;;3.25;1.00;;;;;;;23.15;39.77;101670.41;6005493;28;20125;-67
2022/07/02 10:17:33;;;;;;;2.28;1.08;;;;;;;23.55;41.36;101667.56;6004700;28;20110;-66
2022/07/02 10:20:33;;;;;;;5.10;1.58;;;;;;;24.37;38.04;101664.38;6005565;28;20137;-67
2022/07/02 10:23:28;;;;;;;;;;;;;;;24.20;37.39;101674.00;6000123;28;20038;-66
2022/07/02 10:26:24;;;;;;;1.50;1.00;;;;;;;24.51;37.43;101657.03;6020893;28;20384;-67
2022/07/02 10:29:20;;;;;;;1.75;1.00;;;;;;;24.04;37.65;101658.16;6005819;28;20112;-66
2022/07/02 10:32:30;;;;;;;3.25;0.98;;;;;;;24.08;36.47;101662.94;6017605;28;20031;-67
2022/07/02 10:35:25;;;;;;;1.58;1.00;;;;;;;24.07;39.69;101638.75;6010363;28;20031;-66
2022/07/02 10:38:55;;;;;;;3.10;1.58;;;;;;;24.20;37.38;101646.88;5996512;28;20091;-66
2022/07/02 10:41:50;;;;;;;3.92;1.58;;;;;;;23.96;38.09;101636.69;5993893;28;20035;-66
2022/07/02 10:44:47;;;;;;;3.60;1.10;;;;;;;23.57;39.49;101638.38;5993244;28;20118;-66
2022/07/02 10:48:03;;;;;;;1.70;0.90;;;;;;;23.78;38.11;101639.22;5996958;28;20097;-66
2022/07/02 10:50:58;;;;;;;2.75;1.30;;;;;;;23.53;37.75;101631.75;6001479;28;20042;-67
2022/07/02 10:53:59;;;;;;;1.60;1.10;;;;;;;24.21;37.87;101632.28;6000782;28;20043;-66
2022/07/02 10:56:56;;;;;;;2.40;0.80;;;;;;;24.67;37.40;101619.38;5997491;28;20027;-67
2022/07/02 10:59:51;;;;;;;2.85;1.00;;;;;;;24.31;38.25;101632.69;5985282;28;20035;-67
2022/07/02 11:02:46;;;;;;;4.43;1.10;;;;;;;24.42;36.98;101626.59;6002894;28;20088;-66
2022/07/02 11:05:58;;;;;;;1.67;1.17;;;;;;;24.63;36.01;101620.84;5999092;28;20502;-67
2022/07/02 11:08:56;;;;;;;3.97;1.63;;;;;;;24.12;35.98;101625.44;6000887;28;20066;-66
2022/07/02 11:11:59;;;;;;;3.42;1.23;;;;;;;24.81;37.26;101610.13;6001645;28;20050;-66
2022/07/02 11:14:56;;;;;;;1.45;0.90;;;;;;;25.34;33.94;101616.06;5999297;28;20033;-66
2022/07/02 11:17:51;;;;;;;2.15;0.90;;;;;;;25.21;35.31;101618.88;6002402;28;20042;-67
2022/07/02 11:20:47;;;;;;;0.88;0.70;;;;;;;25.26;33.88;101607.34;5993618;28;20387;-67
2022/07/02 11:23:43;;;;;;;2.53;1.13;;;;;;;25.02;34.84;101611.69;5996241;28;20074;-67
2022/07/02 11:26:46;;;;;;;1.67;0.90;;;;;;;24.54;35.94;101603.16;5999359;28;20390;-66
2022/07/02 11:29:52;;;;;;;2.92;1.10;;;;;;;24.48;35.03;101612.19;5999664;28;20463;-67
2022/07/02 11:32:47;;;;;;;1.08;0.73;;;;;;;24.23;35.25;101609.34;5968469;28;1033751;-67
2022/07/02 11:35:43;;;;;;;2.53;1.10;;;;;;;24.16;34.08;101596.88;6004409;28;20502;-67
2022/07/02 11:38:39;;;;;;;2.47;0.80;;;;;;;24.60;32.91;101591.44;6004564;28;20109;-67
2022/07/02 11:41:35;;;;;;;3.40;0.85;;;;;;;25.56;32.43;101600.22;6003459;28;20453;-66
2022/07/02 11:44:31;;;;;;;4.80;0.90;;;;;;;25.40;32.91;101589.91;6004728;28;20038;-66
2022/07/02 11:47:26;;;;;;;0.93;0.82;;;;;;;25.38;34.70;101592.00;6004158;28;20030;-67
2022/07/02 11:50:29;;;;;;;2.93;0.97;;;;;;;25.39;33.75;101593.66;6004003;28;20073;-67
2022/07/02 11:53:24;;;;;;;1.63;0.80;;;;;;;25.58;31.79;101570.94;6013038;28;20033;-67
2022/07/02 11:56:20;;;;;;;1.63;0.80;;;;;;;25.74;33.54;101575.81;6004001;28;20026;-67
2022/07/02 11:59:17;;;;;;;2.63;0.93;;;;;;;26.10;32.29;101568.72;6002079;28;20078;-67
2022/07/02 12:02:14;;;;;;;0.98;0.90;;;;;;;26.23;31.81;101569.44;6002131;28;20037;-68
2022/07/02 12:05:17;;;;;;;2.60;0.80;;;;;;;25.82;33.53;101553.75;6004174;28;20035;-67
2022/07/02 12:08:14;;;;;;;1.05;0.73;;;;;;;26.17;32.81;101558.66;6003406;28;20102;-67
2022/07/02 12:11:14;;;;;;;2.33;1.05;;;;;;;26.21;32.12;101547.06;5998706;28;20041;-67
2022/07/02 12:14:11;;;;;;;2.55;0.90;;;;;;;26.33;33.40;101550.69;6003326;28;20043;-67
2022/07/02 12:17:09;;;;;;;3.33;1.00;;;;;;;26.55;32.53;101546.41;6012758;28;20057;-67
2022/07/02 12:20:05;;;;;;;0.77;0.60;;;;;;;26.06;30.87;101543.06;6000385;28;20545;-67
2022/07/02 12:23:00;;;;;;;2.67;0.75;;;;;;;26.39;30.86;101529.91;6003217;28;20045;-67
2022/07/02 12:25:56;;;;;;;3.10;1.13;;;;;;;26.65;30.41;101532.25;6003310;28;20038;-67
2022/07/02 12:32:21;;;;;;;3.95;0.90;;;;;;;25.60;31.38;101521.84;5990151;28;20118;-66
2022/07/02 12:35:16;;;;;;;1.08;0.70;;;;;;;26.27;31.18;101524.41;5998437;28;20035;-66
2022/07/02 12:38:12;;;;;;;2.33;1.05;;;;;;;26.40;30.68;101515.22;5999042;28;20054;-67
2022/07/02 12:41:07;;;;;;;1.77;0.90;;;;;;;25.90;31.58;101509.97;5999668;28;20058;-67
2022/07/02 12:44:03;;;;;;;2.15;0.93;;;;;;;25.66;32.13;101516.31;6001301;28;20038;-67
2022/07/02 12:46:58;;;;;;;1.50;0.87;;;;;;;25.06;32.78;101503.50;5997759;28;20045;-67
2022/07/02 12:49:55;;;;;;;3.03;1.07;;;;;;;25.91;32.21;101500.75;5996910;28;20286;-67
2022/07/02 12:52:54;;;;;;;1.15;0.82;;;;;;;25.94;32.21;101491.31;5999008;28;20038;-67
2022/07/02 12:55:55;;;;;;;1.00;0.70;;;;;;;26.76;33.04;101506.94;5999535;28;20509;-67
2022/07/02 12:58:51;;;;;;;1.17;0.80;;;;;;;27.05;29.54;101494.34;5998900;28;20054;-67
2022/07/02 13:01:46;;;;;;;1.55;0.98;;;;;;;27.18;29.97;101497.69;6000073;28;20117;-67
2022/07/02 13:04:43;;;;;;;8.53;1.23;;;;;;;26.67;30.15;101494.72;5995458;28;20049;-67
2022/07/02 13:07:39;;;;;;;1.05;0.90;;;;;;;26.83;31.44;101496.81;6002865;28;20085;-67
2022/07/02 13:10:35;;;;;;;1.33;1.00;;;;;;;26.41;32.78;101484.25;6001982;28;20038;-67
2022/07/02 13:13:30;;;;;;;2.25;1.00;;;;;;;26.62;30.93;101491.88;6002342;28;20121;-67
2022/07/02 13:16:25;;;;;;;2.07;0.80;;;;;;;27.58;31.08;101477.91;6002518;28;20482;-67
2022/07/02 13:19:21;;;;;;;3.60;0.93;;;;;;;27.40;30.31;101480.72;6002506;28;20082;-68
2022/07/02 13:22:16;;;;;;;1.67;0.83;;;;;;;26.73;31.88;101468.47;6000908;28;20035;-67
2022/07/02 13:25:12;;;;;;;3.80;1.05;;;;;;;26.35;31.61;101466.13;6002606;28;20341;-67
2022/07/02 13:28:08;;;;;;;0.90;0.73;;;;;;;25.78;32.16;101470.19;6002367;28;20030;-67
2022/07/02 13:31:03;;;;;;;2.25;0.90;;;;;;;25.98;33.00;101468.88;6002135;28;20035;-68
2022/07/02 13:34:00;;;;;;;1.30;0.80;;;;;;;26.61;30.82;101465.72;6002321;28;20042;-67
2022/07/02 13:36:55;;;;;;;1.95;0.90;;;;;;;27.03;31.07;101452.91;6000600;28;20280;-67
2022/07/02 13:39:50;;;;;;;1.27;0.93;;;;;;;27.70;30.49;101452.28;6002302;28;20039;-67
2022/07/02 13:42:46;;;;;;;2.80;0.90;;;;;;;28.22;28.94;101435.88;6001476;28;20038;-67
2022/07/02 13:45:41;;;;;;;3.00;0.93;;;;;;;27.31;30.34;101439.41;6002305;28;20365;-68
2022/07/02 13:48:36;;;;;;;1.73;0.80;;;;;;;27.46;31.07;101447.13;6002269;28;20678;-67
2022/07/02 13:51:32;;;;;;;2.53;1.00;;;;;;;28.67;31.68;101427.72;6001939;28;20053;-67